logo tempoitalia

Diretta Meteo Beijing, Cinamercoledì 12 agosto ore 09:30

Mappa
Sereno 30 °C Sereno 24 Ore: T.min 25 T.max 36
Ponente Nord Km/h 7.2 Punto di rugiada: 23 °C Umidità: 66% Visibilità: 6 Km
Il sole sorge alle: 05:22 Il sole tramonta alle: 19:17
12 Agosto 2020 09:30 tempo osservato: Sereno Sereno 30 66 1008 vento: Nord N 7.2
12 Agosto 2020 09:00 tempo osservato: Sereno Sereno 29 70 1008 vento: Nord E 10.8
12 Agosto 2020 08:30 tempo osservato: Sereno Sereno 29 70 1008 vento: Nord N 7.2
12 Agosto 2020 07:30 tempo osservato: Nuvoloso Nuvoloso 27 78 1008 vento: Nord N 3.6
12 Agosto 2020 07:00 tempo osservato: Nuvoloso Nuvoloso 26 83 1008 vento: Nord N 3.6
12 Agosto 2020 06:30 tempo osservato: Sereno Sereno 26 88 1008 vento: Nord N 3.6
12 Agosto 2020 06:00 tempo osservato: Sereno Sereno 26 83 1008 vento: Nord N 3.6
12 Agosto 2020 05:30 tempo osservato: Sereno Sereno 25 88 1008 vento: Nord N 3.6
12 Agosto 2020 05:00 tempo osservato: Sereno Sereno 25 88 1008 vento: Nord N 0
12 Agosto 2020 04:00 tempo osservato: Sereno Sereno 25 88 1007 vento: Nord N 3.6
12 Agosto 2020 03:30 tempo osservato: Sereno Sereno 26 83 1007 vento: Nord N 3.6
12 Agosto 2020 03:00 tempo osservato: Sereno Sereno 26 83 1007 vento: Nord N 7.2
12 Agosto 2020 02:30 tempo osservato: Sereno Sereno 26 83 1006 vento: Nord N 7.2
12 Agosto 2020 02:00 tempo osservato: Sereno Sereno 26 83 1007 vento: Nord N 7.2
12 Agosto 2020 01:30 tempo osservato: Sereno Sereno 27 78 1007 vento: Nord S 14.4
12 Agosto 2020 00:30 tempo osservato: Sereno Sereno 28 78 1007 vento: Nord N 7.2
12 Agosto 2020 00:00 tempo osservato: Sereno Sereno 27 88 1007 vento: Nord N 7.2
11 Agosto 2020 23:30 tempo osservato: Sereno Sereno 28 83 1007 vento: Nord N 7.2
11 Agosto 2020 23:00 tempo osservato: Sereno Sereno 31 66 1007 vento: Nord N 7.2
11 Agosto 2020 22:30 tempo osservato: Sereno Sereno 31 66 1007 vento: Nord N 7.2
11 Agosto 2020 22:00 tempo osservato: Sereno Sereno 30 70 1007 vento: Nord N 7.2
11 Agosto 2020 21:30 tempo osservato: Sereno Sereno 30 70 1007 vento: Nord S 14.4
11 Agosto 2020 21:00 tempo osservato: Sereno Sereno 31 62 1007 vento: Nord S 10.8
11 Agosto 2020 20:30 tempo osservato: Sereno Sereno 29 70 1006 vento: Nord N 7.2
11 Agosto 2020 20:00 tempo osservato: Sereno Sereno 29 74 1006 vento: Nord N 7.2
11 Agosto 2020 19:30 tempo osservato: Sereno Sereno 31 66 1006 vento: Nord N 7.2
11 Agosto 2020 19:00 tempo osservato: Sereno Sereno 32 62 1005 vento: Nord S 10.8
11 Agosto 2020 18:30 tempo osservato: Sereno Sereno 33 59 1004 vento: Nord S 14.4
11 Agosto 2020 18:00 tempo osservato: Sereno Sereno 33 55 1004 vento: Nord S 10.8
11 Agosto 2020 17:30 tempo osservato: Sereno Sereno 34 52 1004 vento: Nord S 10.8
11 Agosto 2020 17:00 tempo osservato: Sereno Sereno 35 44 1004 vento: Nord N 7.2
11 Agosto 2020 16:30 tempo osservato: Sereno Sereno 35 41 1004 vento: Nord SE 10.8
11 Agosto 2020 16:00 tempo osservato: Sereno Sereno 35 41 1004 vento: Nord N 7.2
11 Agosto 2020 15:30 tempo osservato: Sereno Sereno 35 44 1004 vento: Nord N 3.6
11 Agosto 2020 15:00 tempo osservato: Sereno Sereno 36 36 1004 vento: Nord N 7.2
11 Agosto 2020 14:30 tempo osservato: Sereno Sereno 35 36 1004 vento: Nord S/SO 10.8
11 Agosto 2020 14:00 tempo osservato: Sereno Sereno 35 41 1004 vento: Nord N 3.6
11 Agosto 2020 13:30 tempo osservato: Sereno Sereno 34 46 1005 vento: Nord S/SO 10.8
11 Agosto 2020 13:00 tempo osservato: Sereno Sereno 34 49 1005 vento: Nord N 7.2
11 Agosto 2020 12:30 tempo osservato: Sereno Sereno 33 49 1005 vento: Nord N 7.2
11 Agosto 2020 12:00 tempo osservato: Sereno Sereno 33 46 1005 vento: Nord N 3.6
11 Agosto 2020 11:30 tempo osservato: Sereno Sereno 33 49 1005 vento: Nord N 3.6
11 Agosto 2020 11:00 tempo osservato: Sereno Sereno 32 49 1005 vento: Nord N 3.6
11 Agosto 2020 10:30 tempo osservato: Sereno Sereno 32 55 1005 vento: Nord N 7.2
11 Agosto 2020 10:00 tempo osservato: Sereno Sereno 30 66 1005 vento: Nord N 3.6